sensor_id;sensor_type;location;lat;lon;timestamp;P1;durP1;ratioP1;P2;durP2;ratioP2
19965;SDS011;10144;50.874;4.762;2022-08-06T00:04:16;7.30;;;1.40;;
19965;SDS011;10144;50.874;4.762;2022-08-06T00:25:52;6.18;;;1.52;;
19965;SDS011;10144;50.874;4.762;2022-08-06T00:31:48;5.20;;;1.38;;
19965;SDS011;10144;50.874;4.762;2022-08-06T00:37:40;6.10;;;1.67;;
19965;SDS011;10144;50.874;4.762;2022-08-06T00:43:34;3.80;;;1.15;;
19965;SDS011;10144;50.874;4.762;2022-08-06T00:49:26;7.10;;;1.45;;
19965;SDS011;10144;50.874;4.762;2022-08-06T00:55:25;3.97;;;1.20;;
19965;SDS011;10144;50.874;4.762;2022-08-06T01:01:17;7.93;;;1.58;;
19965;SDS011;10144;50.874;4.762;2022-08-06T01:07:08;7.30;;;1.83;;
19965;SDS011;10144;50.874;4.762;2022-08-06T01:13:02;6.40;;;1.85;;
19965;SDS011;10144;50.874;4.762;2022-08-06T01:19:04;11.63;;;1.80;;
19965;SDS011;10144;50.874;4.762;2022-08-06T01:31:13;8.15;;;1.88;;
19965;SDS011;10144;50.874;4.762;2022-08-06T01:37:15;10.10;;;1.73;;
19965;SDS011;10144;50.874;4.762;2022-08-06T01:43:08;4.90;;;1.60;;
19965;SDS011;10144;50.874;4.762;2022-08-06T01:49:02;6.65;;;1.75;;
19965;SDS011;10144;50.874;4.762;2022-08-06T01:54:54;7.20;;;1.83;;
19965;SDS011;10144;50.874;4.762;2022-08-06T02:00:51;6.00;;;1.83;;
19965;SDS011;10144;50.874;4.762;2022-08-06T02:06:45;5.80;;;1.80;;
19965;SDS011;10144;50.874;4.762;2022-08-06T02:12:38;9.63;;;1.95;;
19965;SDS011;10144;50.874;4.762;2022-08-06T02:18:29;4.60;;;1.73;;
19965;SDS011;10144;50.874;4.762;2022-08-06T02:24:21;7.70;;;1.95;;
19965;SDS011;10144;50.874;4.762;2022-08-06T02:30:11;8.13;;;2.07;;
19965;SDS011;10144;50.874;4.762;2022-08-06T02:36:02;5.47;;;1.85;;
19965;SDS011;10144;50.874;4.762;2022-08-06T02:42:09;8.45;;;2.17;;
19965;SDS011;10144;50.874;4.762;2022-08-06T02:54:39;6.43;;;2.10;;
19965;SDS011;10144;50.874;4.762;2022-08-06T03:00:30;9.83;;;1.83;;
19965;SDS011;10144;50.874;4.762;2022-08-06T03:06:21;8.77;;;1.97;;
19965;SDS011;10144;50.874;4.762;2022-08-06T03:12:12;7.83;;;1.97;;
19965;SDS011;10144;50.874;4.762;2022-08-06T03:18:05;5.53;;;2.00;;
19965;SDS011;10144;50.874;4.762;2022-08-06T03:23:54;4.47;;;1.80;;
19965;SDS011;10144;50.874;4.762;2022-08-06T03:29:44;4.77;;;1.90;;
19965;SDS011;10144;50.874;4.762;2022-08-06T03:35:33;6.83;;;2.10;;
19965;SDS011;10144;50.874;4.762;2022-08-06T03:41:23;6.27;;;2.10;;
19965;SDS011;10144;50.874;4.762;2022-08-06T03:47:13;10.37;;;2.30;;
19965;SDS011;10144;50.874;4.762;2022-08-06T03:53:15;5.10;;;2.17;;
19965;SDS011;10144;50.874;4.762;2022-08-06T03:59:09;6.00;;;2.07;;
19965;SDS011;10144;50.874;4.762;2022-08-06T04:05:00;7.77;;;2.20;;
19965;SDS011;10144;50.874;4.762;2022-08-06T04:10:49;7.10;;;2.20;;
19965;SDS011;10144;50.874;4.762;2022-08-06T04:16:39;7.40;;;2.10;;
19965;SDS011;10144;50.874;4.762;2022-08-06T04:22:31;5.83;;;2.10;;
19965;SDS011;10144;50.874;4.762;2022-08-06T04:28:20;11.37;;;2.67;;
19965;SDS011;10144;50.874;4.762;2022-08-06T04:34:14;10.05;;;2.33;;
19965;SDS011;10144;50.874;4.762;2022-08-06T04:40:14;10.30;;;2.35;;
19965;SDS011;10144;50.874;4.762;2022-08-06T04:46:04;5.65;;;2.33;;
19965;SDS011;10144;50.874;4.762;2022-08-06T04:51:53;8.85;;;2.20;;
19965;SDS011;10144;50.874;4.762;2022-08-06T05:01:11;7.10;;;2.28;;
19965;SDS011;10144;50.874;4.762;2022-08-06T05:18:21;8.85;;;2.28;;
19965;SDS011;10144;50.874;4.762;2022-08-06T05:24:16;6.13;;;2.03;;
19965;SDS011;10144;50.874;4.762;2022-08-06T05:32:48;6.97;;;2.20;;
19965;SDS011;10144;50.874;4.762;2022-08-06T05:46:41;5.88;;;1.70;;
19965;SDS011;10144;50.874;4.762;2022-08-06T05:55:16;11.32;;;1.80;;
19965;SDS011;10144;50.874;4.762;2022-08-06T06:01:12;9.88;;;1.67;;
19965;SDS011;10144;50.874;4.762;2022-08-06T06:07:01;9.10;;;1.88;;
19965;SDS011;10144;50.874;4.762;2022-08-06T06:12:53;9.57;;;1.90;;
19965;SDS011;10144;50.874;4.762;2022-08-06T06:18:54;6.88;;;1.60;;
19965;SDS011;10144;50.874;4.762;2022-08-06T06:37:09;6.47;;;1.30;;
19965;SDS011;10144;50.874;4.762;2022-08-06T06:43:11;5.70;;;1.40;;
19965;SDS011;10144;50.874;4.762;2022-08-06T06:55:40;9.70;;;1.65;;
19965;SDS011;10144;50.874;4.762;2022-08-06T07:01:31;9.27;;;1.70;;
19965;SDS011;10144;50.874;4.762;2022-08-06T07:07:22;8.40;;;1.30;;
19965;SDS011;10144;50.874;4.762;2022-08-06T07:13:11;6.90;;;1.48;;
19965;SDS011;10144;50.874;4.762;2022-08-06T07:19:01;46.13;;;3.15;;
19965;SDS011;10144;50.874;4.762;2022-08-06T07:24:56;5.47;;;1.30;;
19965;SDS011;10144;50.874;4.762;2022-08-06T07:30:47;6.22;;;1.20;;
19965;SDS011;10144;50.874;4.762;2022-08-06T07:36:39;6.53;;;2.00;;
19965;SDS011;10144;50.874;4.762;2022-08-06T07:42:36;9.57;;;2.50;;
19965;SDS011;10144;50.874;4.762;2022-08-06T07:48:31;8.68;;;2.30;;
19965;SDS011;10144;50.874;4.762;2022-08-06T07:54:25;8.82;;;2.13;;
19965;SDS011;10144;50.874;4.762;2022-08-06T08:00:21;12.73;;;1.80;;
19965;SDS011;10144;50.874;4.762;2022-08-06T08:06:11;7.97;;;1.50;;
19965;SDS011;10144;50.874;4.762;2022-08-06T08:12:15;6.00;;;1.20;;
19965;SDS011;10144;50.874;4.762;2022-08-06T08:18:05;10.13;;;1.10;;
19965;SDS011;10144;50.874;4.762;2022-08-06T08:23:53;11.73;;;1.27;;
19965;SDS011;10144;50.874;4.762;2022-08-06T08:29:41;11.43;;;1.20;;
19965;SDS011;10144;50.874;4.762;2022-08-06T08:35:30;5.38;;;1.15;;
19965;SDS011;10144;50.874;4.762;2022-08-06T08:41:19;4.07;;;0.90;;
19965;SDS011;10144;50.874;4.762;2022-08-06T08:47:12;9.13;;;0.90;;
19965;SDS011;10144;50.874;4.762;2022-08-06T08:59:45;7.22;;;1.33;;
19965;SDS011;10144;50.874;4.762;2022-08-06T09:05:34;5.80;;;1.00;;
19965;SDS011;10144;50.874;4.762;2022-08-06T09:11:22;8.15;;;1.13;;
19965;SDS011;10144;50.874;4.762;2022-08-06T09:17:11;2.72;;;0.90;;
19965;SDS011;10144;50.874;4.762;2022-08-06T09:22:59;10.40;;;0.93;;
19965;SDS011;10144;50.874;4.762;2022-08-06T09:28:51;2.65;;;1.00;;
19965;SDS011;10144;50.874;4.762;2022-08-06T09:34:44;5.53;;;1.10;;
19965;SDS011;10144;50.874;4.762;2022-08-06T09:40:32;4.93;;;1.08;;
19965;SDS011;10144;50.874;4.762;2022-08-06T09:46:53;2.55;;;1.23;;
19965;SDS011;10144;50.874;4.762;2022-08-06T09:52:37;2.72;;;1.15;;
19965;SDS011;10144;50.874;4.762;2022-08-06T09:58:28;7.22;;;1.40;;
19965;SDS011;10144;50.874;4.762;2022-08-06T10:04:28;7.13;;;1.10;;
19965;SDS011;10144;50.874;4.762;2022-08-06T10:10:18;4.57;;;1.05;;
19965;SDS011;10144;50.874;4.762;2022-08-06T10:16:29;7.63;;;1.08;;
19965;SDS011;10144;50.874;4.762;2022-08-06T10:22:20;2.55;;;0.70;;
19965;SDS011;10144;50.874;4.762;2022-08-06T10:28:08;3.47;;;0.70;;
19965;SDS011;10144;50.874;4.762;2022-08-06T10:34:09;3.40;;;0.90;;
19965;SDS011;10144;50.874;4.762;2022-08-06T10:40:00;3.65;;;0.90;;
19965;SDS011;10144;50.874;4.762;2022-08-06T10:45:49;2.08;;;0.88;;
19965;SDS011;10144;50.874;4.762;2022-08-06T10:51:44;4.10;;;0.98;;
19965;SDS011;10144;50.874;4.762;2022-08-06T10:57:32;1.83;;;0.90;;
19965;SDS011;10144;50.874;4.762;2022-08-06T11:15:27;2.65;;;0.82;;
19965;SDS011;10144;50.874;4.762;2022-08-06T11:28:10;3.50;;;1.00;;
19965;SDS011;10144;50.874;4.762;2022-08-06T11:34:08;5.20;;;0.98;;
19965;SDS011;10144;50.874;4.762;2022-08-06T11:40:04;2.83;;;0.70;;
19965;SDS011;10144;50.874;4.762;2022-08-06T11:52:38;12.52;;;1.00;;
19965;SDS011;10144;50.874;4.762;2022-08-06T11:58:27;6.03;;;1.13;;
19965;SDS011;10144;50.874;4.762;2022-08-06T12:21:09;4.00;;;0.80;;
19965;SDS011;10144;50.874;4.762;2022-08-06T12:26:57;18.55;;;2.00;;
19965;SDS011;10144;50.874;4.762;2022-08-06T12:32:46;4.50;;;1.10;;
19965;SDS011;10144;50.874;4.762;2022-08-06T12:38:35;15.38;;;0.90;;
19965;SDS011;10144;50.874;4.762;2022-08-06T12:44:30;3.58;;;0.70;;
19965;SDS011;10144;50.874;4.762;2022-08-06T12:50:20;3.05;;;0.80;;
19965;SDS011;10144;50.874;4.762;2022-08-06T12:56:14;2.92;;;0.85;;
19965;SDS011;10144;50.874;4.762;2022-08-06T13:02:03;13.05;;;1.13;;
19965;SDS011;10144;50.874;4.762;2022-08-06T13:07:53;2.70;;;0.60;;
19965;SDS011;10144;50.874;4.762;2022-08-06T13:13:46;5.20;;;0.75;;
19965;SDS011;10144;50.874;4.762;2022-08-06T13:19:37;2.47;;;0.90;;
19965;SDS011;10144;50.874;4.762;2022-08-06T13:25:45;3.40;;;0.70;;
19965;SDS011;10144;50.874;4.762;2022-08-06T13:31:38;7.13;;;0.90;;
19965;SDS011;10144;50.874;4.762;2022-08-06T13:50:56;3.17;;;1.00;;
19965;SDS011;10144;50.874;4.762;2022-08-06T13:56:44;1.75;;;0.60;;
19965;SDS011;10144;50.874;4.762;2022-08-06T14:02:33;2.17;;;0.60;;
19965;SDS011;10144;50.874;4.762;2022-08-06T14:08:21;1.67;;;0.73;;
19965;SDS011;10144;50.874;4.762;2022-08-06T14:14:09;4.50;;;0.85;;
19965;SDS011;10144;50.874;4.762;2022-08-06T14:19:57;1.30;;;0.70;;
19965;SDS011;10144;50.874;4.762;2022-08-06T14:25:45;1.77;;;0.90;;
19965;SDS011;10144;50.874;4.762;2022-08-06T14:31:33;1.73;;;0.80;;
19965;SDS011;10144;50.874;4.762;2022-08-06T14:37:22;5.20;;;0.82;;
19965;SDS011;10144;50.874;4.762;2022-08-06T14:43:09;1.58;;;0.82;;
19965;SDS011;10144;50.874;4.762;2022-08-06T14:49:16;3.03;;;0.98;;
19965;SDS011;10144;50.874;4.762;2022-08-06T14:55:06;2.28;;;0.95;;
19965;SDS011;10144;50.874;4.762;2022-08-06T15:00:57;1.15;;;0.60;;
19965;SDS011;10144;50.874;4.762;2022-08-06T15:06:45;6.80;;;1.20;;
19965;SDS011;10144;50.874;4.762;2022-08-06T15:12:34;1.75;;;0.98;;
19965;SDS011;10144;50.874;4.762;2022-08-06T15:18:35;2.20;;;1.00;;
19965;SDS011;10144;50.874;4.762;2022-08-06T15:24:23;1.98;;;1.00;;
19965;SDS011;10144;50.874;4.762;2022-08-06T15:30:12;3.22;;;1.17;;
19965;SDS011;10144;50.874;4.762;2022-08-06T15:36:01;1.75;;;1.08;;
19965;SDS011;10144;50.874;4.762;2022-08-06T15:42:15;2.30;;;1.08;;
19965;SDS011;10144;50.874;4.762;2022-08-06T15:48:04;13.73;;;1.30;;
19965;SDS011;10144;50.874;4.762;2022-08-06T16:02:25;2.58;;;1.15;;
19965;SDS011;10144;50.874;4.762;2022-08-06T16:14:33;2.90;;;1.10;;
19965;SDS011;10144;50.874;4.762;2022-08-06T16:20:20;2.63;;;1.08;;
19965;SDS011;10144;50.874;4.762;2022-08-06T16:26:08;4.95;;;1.15;;
19965;SDS011;10144;50.874;4.762;2022-08-06T16:31:56;3.47;;;1.15;;
19965;SDS011;10144;50.874;4.762;2022-08-06T16:37:45;2.53;;;1.10;;
19965;SDS011;10144;50.874;4.762;2022-08-06T16:43:34;3.17;;;1.17;;
19965;SDS011;10144;50.874;4.762;2022-08-06T16:49:39;1.92;;;1.30;;
19965;SDS011;10144;50.874;4.762;2022-08-06T17:03:36;4.10;;;1.20;;
19965;SDS011;10144;50.874;4.762;2022-08-06T17:11:13;3.50;;;1.10;;
19965;SDS011;10144;50.874;4.762;2022-08-06T17:17:02;2.40;;;0.90;;
19965;SDS011;10144;50.874;4.762;2022-08-06T17:22:50;2.08;;;1.10;;
19965;SDS011;10144;50.874;4.762;2022-08-06T17:28:38;3.38;;;1.42;;
19965;SDS011;10144;50.874;4.762;2022-08-06T17:34:26;3.00;;;1.60;;
19965;SDS011;10144;50.874;4.762;2022-08-06T17:40:14;2.78;;;1.40;;
19965;SDS011;10144;50.874;4.762;2022-08-06T17:46:04;3.03;;;1.30;;
19965;SDS011;10144;50.874;4.762;2022-08-06T17:51:52;4.32;;;1.70;;
19965;SDS011;10144;50.874;4.762;2022-08-06T17:57:40;3.22;;;1.20;;
19965;SDS011;10144;50.874;4.762;2022-08-06T18:03:27;2.17;;;1.13;;
19965;SDS011;10144;50.874;4.762;2022-08-06T18:09:15;5.72;;;1.25;;
19965;SDS011;10144;50.874;4.762;2022-08-06T18:15:03;2.50;;;1.38;;
19965;SDS011;10144;50.874;4.762;2022-08-06T18:20:51;4.80;;;1.40;;
19965;SDS011;10144;50.874;4.762;2022-08-06T18:26:39;4.85;;;1.40;;
19965;SDS011;10144;50.874;4.762;2022-08-06T18:32:27;2.50;;;1.10;;
19965;SDS011;10144;50.874;4.762;2022-08-06T18:38:15;2.35;;;1.38;;
19965;SDS011;10144;50.874;4.762;2022-08-06T18:44:03;3.20;;;1.20;;
19965;SDS011;10144;50.874;4.762;2022-08-06T18:49:51;6.32;;;1.90;;
19965;SDS011;10144;50.874;4.762;2022-08-06T18:55:39;5.07;;;2.10;;
19965;SDS011;10144;50.874;4.762;2022-08-06T19:01:27;3.50;;;1.50;;
19965;SDS011;10144;50.874;4.762;2022-08-06T19:07:15;3.67;;;1.52;;
19965;SDS011;10144;50.874;4.762;2022-08-06T19:13:06;2.58;;;1.58;;
19965;SDS011;10144;50.874;4.762;2022-08-06T19:18:54;5.82;;;1.98;;
19965;SDS011;10144;50.874;4.762;2022-08-06T19:24:42;3.08;;;1.70;;
19965;SDS011;10144;50.874;4.762;2022-08-06T19:30:31;4.75;;;2.55;;
19965;SDS011;10144;50.874;4.762;2022-08-06T19:36:19;8.38;;;3.00;;
19965;SDS011;10144;50.874;4.762;2022-08-06T19:42:08;5.43;;;2.40;;
19965;SDS011;10144;50.874;4.762;2022-08-06T19:47:57;5.03;;;2.15;;
19965;SDS011;10144;50.874;4.762;2022-08-06T19:53:46;3.78;;;1.90;;
19965;SDS011;10144;50.874;4.762;2022-08-06T19:59:35;2.15;;;1.40;;
19965;SDS011;10144;50.874;4.762;2022-08-06T20:05:24;3.85;;;1.42;;
19965;SDS011;10144;50.874;4.762;2022-08-06T20:11:12;2.25;;;1.23;;
19965;SDS011;10144;50.874;4.762;2022-08-06T20:17:00;2.70;;;1.13;;
19965;SDS011;10144;50.874;4.762;2022-08-06T20:19:27;4.50;;;1.60;;
19965;SDS011;10144;50.874;4.762;2022-08-06T20:25:15;2.95;;;1.55;;
19965;SDS011;10144;50.874;4.762;2022-08-06T20:31:05;7.53;;;1.70;;
19965;SDS011;10144;50.874;4.762;2022-08-06T20:36:54;5.70;;;1.70;;
19965;SDS011;10144;50.874;4.762;2022-08-06T20:42:42;3.70;;;1.80;;
19965;SDS011;10144;50.874;4.762;2022-08-06T20:48:31;5.68;;;1.83;;
19965;SDS011;10144;50.874;4.762;2022-08-06T20:54:20;3.15;;;1.95;;
19965;SDS011;10144;50.874;4.762;2022-08-06T21:05:58;4.30;;;2.30;;
19965;SDS011;10144;50.874;4.762;2022-08-06T21:11:46;3.92;;;2.08;;
19965;SDS011;10144;50.874;4.762;2022-08-06T21:17:34;3.30;;;2.20;;
19965;SDS011;10144;50.874;4.762;2022-08-06T21:23:22;6.13;;;2.30;;
19965;SDS011;10144;50.874;4.762;2022-08-06T21:29:10;6.25;;;2.20;;
19965;SDS011;10144;50.874;4.762;2022-08-06T21:34:59;7.20;;;2.25;;
19965;SDS011;10144;50.874;4.762;2022-08-06T21:40:48;5.15;;;2.40;;
19965;SDS011;10144;50.874;4.762;2022-08-06T21:46:36;4.22;;;2.45;;
19965;SDS011;10144;50.874;4.762;2022-08-06T21:52:24;4.63;;;2.30;;
19965;SDS011;10144;50.874;4.762;2022-08-06T21:58:13;4.20;;;2.08;;
19965;SDS011;10144;50.874;4.762;2022-08-06T22:04:01;4.53;;;2.38;;
19965;SDS011;10144;50.874;4.762;2022-08-06T22:13:17;5.90;;;2.15;;
19965;SDS011;10144;50.874;4.762;2022-08-06T22:19:05;3.33;;;1.95;;
19965;SDS011;10144;50.874;4.762;2022-08-06T22:24:53;3.67;;;2.30;;
19965;SDS011;10144;50.874;4.762;2022-08-06T22:30:41;5.18;;;2.30;;
19965;SDS011;10144;50.874;4.762;2022-08-06T22:36:29;4.63;;;2.75;;
19965;SDS011;10144;50.874;4.762;2022-08-06T22:42:17;5.45;;;2.45;;
19965;SDS011;10144;50.874;4.762;2022-08-06T22:48:06;6.28;;;2.35;;
19965;SDS011;10144;50.874;4.762;2022-08-06T22:53:54;3.65;;;2.30;;
19965;SDS011;10144;50.874;4.762;2022-08-06T22:59:43;3.30;;;2.20;;
19965;SDS011;10144;50.874;4.762;2022-08-06T23:05:31;3.45;;;2.35;;
19965;SDS011;10144;50.874;4.762;2022-08-06T23:11:19;3.67;;;2.20;;
19965;SDS011;10144;50.874;4.762;2022-08-06T23:17:07;6.78;;;2.35;;
19965;SDS011;10144;50.874;4.762;2022-08-06T23:22:56;3.20;;;2.42;;
19965;SDS011;10144;50.874;4.762;2022-08-06T23:28:44;5.35;;;2.50;;
19965;SDS011;10144;50.874;4.762;2022-08-06T23:34:33;6.15;;;2.53;;
19965;SDS011;10144;50.874;4.762;2022-08-06T23:40:21;6.38;;;2.42;;
19965;SDS011;10144;50.874;4.762;2022-08-06T23:46:09;3.85;;;2.42;;
19965;SDS011;10144;50.874;4.762;2022-08-06T23:51:57;8.15;;;2.90;;
19965;SDS011;10144;50.874;4.762;2022-08-06T23:57:46;5.43;;;2.67;;
